sensor_id;sensor_type;location;lat;lon;timestamp;P1;durP1;ratioP1;P2;durP2;ratioP2
75535;SDS011;64119;52.070;20.804;2022-10-16T00:01:24;7.60;;;5.30;;
75535;SDS011;64119;52.070;20.804;2022-10-16T00:03:53;6.60;;;4.80;;
75535;SDS011;64119;52.070;20.804;2022-10-16T00:06:23;7.30;;;4.40;;
75535;SDS011;64119;52.070;20.804;2022-10-16T00:08:51;8.40;;;5.00;;
75535;SDS011;64119;52.070;20.804;2022-10-16T00:11:20;6.10;;;4.20;;
75535;SDS011;64119;52.070;20.804;2022-10-16T00:13:51;7.80;;;5.50;;
75535;SDS011;64119;52.070;20.804;2022-10-16T00:16:21;11.00;;;5.90;;
75535;SDS011;64119;52.070;20.804;2022-10-16T00:18:49;7.60;;;5.10;;
75535;SDS011;64119;52.070;20.804;2022-10-16T00:21:21;11.70;;;6.60;;
75535;SDS011;64119;52.070;20.804;2022-10-16T00:23:54;8.80;;;5.70;;
75535;SDS011;64119;52.070;20.804;2022-10-16T00:26:27;5.70;;;3.70;;
75535;SDS011;64119;52.070;20.804;2022-10-16T00:28:57;10.40;;;6.10;;
75535;SDS011;64119;52.070;20.804;2022-10-16T00:31:25;9.40;;;6.10;;
75535;SDS011;64119;52.070;20.804;2022-10-16T00:33:54;9.70;;;5.70;;
75535;SDS011;64119;52.070;20.804;2022-10-16T00:36:22;13.00;;;6.50;;
75535;SDS011;64119;52.070;20.804;2022-10-16T00:38:52;11.20;;;5.80;;
75535;SDS011;64119;52.070;20.804;2022-10-16T00:41:23;9.00;;;5.70;;
75535;SDS011;64119;52.070;20.804;2022-10-16T00:43:55;10.10;;;6.80;;
75535;SDS011;64119;52.070;20.804;2022-10-16T00:46:29;8.60;;;6.00;;
75535;SDS011;64119;52.070;20.804;2022-10-16T00:49:03;12.00;;;6.60;;
75535;SDS011;64119;52.070;20.804;2022-10-16T00:51:35;10.00;;;6.30;;
75535;SDS011;64119;52.070;20.804;2022-10-16T00:56:39;8.10;;;5.80;;
75535;SDS011;64119;52.070;20.804;2022-10-16T00:59:08;10.50;;;6.50;;
75535;SDS011;64119;52.070;20.804;2022-10-16T01:01:42;11.40;;;6.80;;
75535;SDS011;64119;52.070;20.804;2022-10-16T01:04:10;11.40;;;6.30;;
75535;SDS011;64119;52.070;20.804;2022-10-16T01:06:47;11.80;;;6.50;;
75535;SDS011;64119;52.070;20.804;2022-10-16T01:12:20;9.90;;;6.60;;
75535;SDS011;64119;52.070;20.804;2022-10-16T01:17:34;11.20;;;6.00;;
75535;SDS011;64119;52.070;20.804;2022-10-16T01:20:26;11.80;;;6.50;;
75535;SDS011;64119;52.070;20.804;2022-10-16T01:28:01;11.80;;;6.50;;
75535;SDS011;64119;52.070;20.804;2022-10-16T01:30:32;11.20;;;6.70;;
75535;SDS011;64119;52.070;20.804;2022-10-16T01:33:04;9.20;;;6.00;;
75535;SDS011;64119;52.070;20.804;2022-10-16T01:35:41;9.80;;;6.90;;
75535;SDS011;64119;52.070;20.804;2022-10-16T01:38:17;11.20;;;6.80;;
75535;SDS011;64119;52.070;20.804;2022-10-16T01:40:52;9.60;;;6.50;;
75535;SDS011;64119;52.070;20.804;2022-10-16T01:43:28;11.10;;;6.30;;
75535;SDS011;64119;52.070;20.804;2022-10-16T01:46:00;9.80;;;6.30;;
75535;SDS011;64119;52.070;20.804;2022-10-16T01:48:29;11.70;;;6.60;;
75535;SDS011;64119;52.070;20.804;2022-10-16T01:51:19;9.70;;;6.50;;
75535;SDS011;64119;52.070;20.804;2022-10-16T01:53:48;10.20;;;6.20;;
75535;SDS011;64119;52.070;20.804;2022-10-16T01:56:19;7.80;;;6.20;;
75535;SDS011;64119;52.070;20.804;2022-10-16T01:58:51;9.70;;;6.50;;
75535;SDS011;64119;52.070;20.804;2022-10-16T02:01:23;9.70;;;6.10;;
75535;SDS011;64119;52.070;20.804;2022-10-16T02:03:54;9.20;;;6.50;;
75535;SDS011;64119;52.070;20.804;2022-10-16T02:06:25;13.00;;;6.50;;
75535;SDS011;64119;52.070;20.804;2022-10-16T02:08:53;11.30;;;7.20;;
75535;SDS011;64119;52.070;20.804;2022-10-16T02:11:21;10.40;;;7.40;;
75535;SDS011;64119;52.070;20.804;2022-10-16T02:13:51;9.90;;;6.50;;
75535;SDS011;64119;52.070;20.804;2022-10-16T02:16:23;11.10;;;6.60;;
75535;SDS011;64119;52.070;20.804;2022-10-16T02:18:59;10.80;;;6.70;;
75535;SDS011;64119;52.070;20.804;2022-10-16T02:21:33;15.40;;;6.60;;
75535;SDS011;64119;52.070;20.804;2022-10-16T02:24:16;11.30;;;6.70;;
75535;SDS011;64119;52.070;20.804;2022-10-16T02:26:52;10.10;;;6.20;;
75535;SDS011;64119;52.070;20.804;2022-10-16T02:29:26;10.50;;;7.50;;
75535;SDS011;64119;52.070;20.804;2022-10-16T02:31:57;9.30;;;6.50;;
75535;SDS011;64119;52.070;20.804;2022-10-16T02:34:29;12.30;;;6.90;;
75535;SDS011;64119;52.070;20.804;2022-10-16T02:36:59;10.50;;;7.20;;
75535;SDS011;64119;52.070;20.804;2022-10-16T02:39:28;10.90;;;8.40;;
75535;SDS011;64119;52.070;20.804;2022-10-16T02:41:57;9.80;;;6.70;;
75535;SDS011;64119;52.070;20.804;2022-10-16T02:44:24;12.00;;;6.70;;
75535;SDS011;64119;52.070;20.804;2022-10-16T02:46:52;12.40;;;7.40;;
75535;SDS011;64119;52.070;20.804;2022-10-16T02:49:20;10.70;;;6.60;;
75535;SDS011;64119;52.070;20.804;2022-10-16T02:51:47;11.50;;;7.20;;
75535;SDS011;64119;52.070;20.804;2022-10-16T02:54:15;10.90;;;7.20;;
75535;SDS011;64119;52.070;20.804;2022-10-16T02:56:42;9.90;;;6.70;;
75535;SDS011;64119;52.070;20.804;2022-10-16T02:59:10;12.00;;;7.50;;
75535;SDS011;64119;52.070;20.804;2022-10-16T03:01:37;11.50;;;7.00;;
75535;SDS011;64119;52.070;20.804;2022-10-16T03:04:05;13.70;;;7.80;;
75535;SDS011;64119;52.070;20.804;2022-10-16T03:06:33;13.10;;;7.10;;
75535;SDS011;64119;52.070;20.804;2022-10-16T03:09:01;11.00;;;6.90;;
75535;SDS011;64119;52.070;20.804;2022-10-16T03:11:29;10.90;;;7.30;;
75535;SDS011;64119;52.070;20.804;2022-10-16T03:13:57;9.90;;;7.20;;
75535;SDS011;64119;52.070;20.804;2022-10-16T03:16:24;10.00;;;7.00;;
75535;SDS011;64119;52.070;20.804;2022-10-16T03:18:52;11.80;;;7.20;;
75535;SDS011;64119;52.070;20.804;2022-10-16T03:21:19;14.50;;;7.10;;
75535;SDS011;64119;52.070;20.804;2022-10-16T03:23:47;10.60;;;6.40;;
75535;SDS011;64119;52.070;20.804;2022-10-16T03:26:15;10.30;;;7.20;;
75535;SDS011;64119;52.070;20.804;2022-10-16T03:28:42;13.30;;;8.10;;
75535;SDS011;64119;52.070;20.804;2022-10-16T03:31:10;11.60;;;7.80;;
75535;SDS011;64119;52.070;20.804;2022-10-16T03:33:38;12.30;;;7.40;;
75535;SDS011;64119;52.070;20.804;2022-10-16T03:36:05;10.80;;;7.50;;
75535;SDS011;64119;52.070;20.804;2022-10-16T03:38:33;12.90;;;8.80;;
75535;SDS011;64119;52.070;20.804;2022-10-16T03:41:01;10.30;;;7.20;;
75535;SDS011;64119;52.070;20.804;2022-10-16T03:43:29;12.40;;;7.40;;
75535;SDS011;64119;52.070;20.804;2022-10-16T03:45:56;12.30;;;7.60;;
75535;SDS011;64119;52.070;20.804;2022-10-16T03:48:24;10.20;;;7.10;;
75535;SDS011;64119;52.070;20.804;2022-10-16T03:50:52;12.70;;;7.20;;
75535;SDS011;64119;52.070;20.804;2022-10-16T03:53:19;11.00;;;7.60;;
75535;SDS011;64119;52.070;20.804;2022-10-16T03:55:47;9.90;;;6.50;;
75535;SDS011;64119;52.070;20.804;2022-10-16T03:58:14;12.70;;;7.70;;
75535;SDS011;64119;52.070;20.804;2022-10-16T04:00:42;10.70;;;7.50;;
75535;SDS011;64119;52.070;20.804;2022-10-16T04:03:11;11.90;;;8.30;;
75535;SDS011;64119;52.070;20.804;2022-10-16T04:05:39;10.90;;;7.80;;
75535;SDS011;64119;52.070;20.804;2022-10-16T04:08:07;11.90;;;6.90;;
75535;SDS011;64119;52.070;20.804;2022-10-16T04:10:35;9.70;;;6.80;;
75535;SDS011;64119;52.070;20.804;2022-10-16T04:13:02;11.10;;;7.50;;
75535;SDS011;64119;52.070;20.804;2022-10-16T04:15:30;13.60;;;8.30;;
75535;SDS011;64119;52.070;20.804;2022-10-16T04:17:57;11.00;;;8.10;;
75535;SDS011;64119;52.070;20.804;2022-10-16T04:20:25;11.80;;;7.20;;
75535;SDS011;64119;52.070;20.804;2022-10-16T04:22:52;10.70;;;7.80;;
75535;SDS011;64119;52.070;20.804;2022-10-16T04:25:20;13.20;;;8.60;;
75535;SDS011;64119;52.070;20.804;2022-10-16T04:27:48;13.00;;;8.40;;
75535;SDS011;64119;52.070;20.804;2022-10-16T04:30:15;13.60;;;8.20;;
75535;SDS011;64119;52.070;20.804;2022-10-16T04:32:47;11.60;;;7.40;;
75535;SDS011;64119;52.070;20.804;2022-10-16T04:35:19;11.10;;;7.80;;
75535;SDS011;64119;52.070;20.804;2022-10-16T04:37:47;11.60;;;7.80;;
75535;SDS011;64119;52.070;20.804;2022-10-16T04:40:15;14.00;;;8.40;;
75535;SDS011;64119;52.070;20.804;2022-10-16T04:42:43;13.00;;;9.10;;
75535;SDS011;64119;52.070;20.804;2022-10-16T04:45:11;12.10;;;8.20;;
75535;SDS011;64119;52.070;20.804;2022-10-16T04:47:43;12.80;;;8.30;;
75535;SDS011;64119;52.070;20.804;2022-10-16T04:50:11;10.80;;;7.30;;
75535;SDS011;64119;52.070;20.804;2022-10-16T04:52:38;13.00;;;7.90;;
75535;SDS011;64119;52.070;20.804;2022-10-16T04:55:06;11.30;;;7.50;;
75535;SDS011;64119;52.070;20.804;2022-10-16T04:57:34;12.70;;;7.70;;
75535;SDS011;64119;52.070;20.804;2022-10-16T05:00:02;13.90;;;8.30;;
75535;SDS011;64119;52.070;20.804;2022-10-16T05:02:30;13.10;;;8.10;;
75535;SDS011;64119;52.070;20.804;2022-10-16T05:04:58;10.80;;;7.80;;
75535;SDS011;64119;52.070;20.804;2022-10-16T05:07:26;14.00;;;8.00;;
75535;SDS011;64119;52.070;20.804;2022-10-16T05:09:54;11.20;;;7.80;;
75535;SDS011;64119;52.070;20.804;2022-10-16T05:12:21;12.40;;;7.80;;
75535;SDS011;64119;52.070;20.804;2022-10-16T05:14:49;14.10;;;8.40;;
75535;SDS011;64119;52.070;20.804;2022-10-16T05:17:16;12.30;;;7.50;;
75535;SDS011;64119;52.070;20.804;2022-10-16T05:19:44;12.90;;;8.00;;
75535;SDS011;64119;52.070;20.804;2022-10-16T05:22:12;12.20;;;8.40;;
75535;SDS011;64119;52.070;20.804;2022-10-16T05:24:39;12.00;;;7.80;;
75535;SDS011;64119;52.070;20.804;2022-10-16T05:27:07;11.50;;;7.90;;
75535;SDS011;64119;52.070;20.804;2022-10-16T05:29:34;14.60;;;7.70;;
75535;SDS011;64119;52.070;20.804;2022-10-16T05:32:02;12.70;;;8.10;;
75535;SDS011;64119;52.070;20.804;2022-10-16T05:34:30;16.00;;;8.50;;
75535;SDS011;64119;52.070;20.804;2022-10-16T05:36:58;12.10;;;7.50;;
75535;SDS011;64119;52.070;20.804;2022-10-16T05:39:25;15.80;;;8.20;;
75535;SDS011;64119;52.070;20.804;2022-10-16T05:41:53;16.70;;;9.90;;
75535;SDS011;64119;52.070;20.804;2022-10-16T05:44:20;13.60;;;7.00;;
75535;SDS011;64119;52.070;20.804;2022-10-16T05:46:48;12.70;;;8.20;;
75535;SDS011;64119;52.070;20.804;2022-10-16T05:49:16;12.10;;;8.20;;
75535;SDS011;64119;52.070;20.804;2022-10-16T05:51:43;15.90;;;9.10;;
75535;SDS011;64119;52.070;20.804;2022-10-16T05:54:11;13.20;;;7.90;;
75535;SDS011;64119;52.070;20.804;2022-10-16T05:56:39;12.80;;;7.50;;
75535;SDS011;64119;52.070;20.804;2022-10-16T05:59:06;11.90;;;7.90;;
75535;SDS011;64119;52.070;20.804;2022-10-16T06:01:34;12.00;;;7.40;;
75535;SDS011;64119;52.070;20.804;2022-10-16T06:04:02;12.10;;;7.30;;
75535;SDS011;64119;52.070;20.804;2022-10-16T06:06:30;12.20;;;7.30;;
75535;SDS011;64119;52.070;20.804;2022-10-16T06:08:58;12.70;;;8.10;;
75535;SDS011;64119;52.070;20.804;2022-10-16T06:11:28;12.90;;;8.10;;
75535;SDS011;64119;52.070;20.804;2022-10-16T06:13:59;15.10;;;7.70;;
75535;SDS011;64119;52.070;20.804;2022-10-16T06:16:34;13.60;;;8.50;;
75535;SDS011;64119;52.070;20.804;2022-10-16T06:21:33;13.40;;;7.60;;
75535;SDS011;64119;52.070;20.804;2022-10-16T06:24:01;13.30;;;7.60;;
75535;SDS011;64119;52.070;20.804;2022-10-16T06:26:29;8.50;;;6.30;;
75535;SDS011;64119;52.070;20.804;2022-10-16T06:28:58;10.00;;;7.40;;
75535;SDS011;64119;52.070;20.804;2022-10-16T06:31:27;12.50;;;7.30;;
75535;SDS011;64119;52.070;20.804;2022-10-16T06:33:58;13.00;;;7.70;;
75535;SDS011;64119;52.070;20.804;2022-10-16T06:36:26;12.70;;;8.60;;
75535;SDS011;64119;52.070;20.804;2022-10-16T06:38:54;14.30;;;8.00;;
75535;SDS011;64119;52.070;20.804;2022-10-16T06:41:22;10.40;;;7.30;;
75535;SDS011;64119;52.070;20.804;2022-10-16T06:43:50;12.40;;;7.90;;
75535;SDS011;64119;52.070;20.804;2022-10-16T06:46:21;11.20;;;7.30;;
75535;SDS011;64119;52.070;20.804;2022-10-16T06:48:50;11.60;;;8.40;;
75535;SDS011;64119;52.070;20.804;2022-10-16T06:51:22;10.10;;;6.50;;
75535;SDS011;64119;52.070;20.804;2022-10-16T06:53:51;9.70;;;6.00;;
75535;SDS011;64119;52.070;20.804;2022-10-16T06:56:31;9.60;;;7.00;;
75535;SDS011;64119;52.070;20.804;2022-10-16T06:59:00;12.30;;;8.00;;
75535;SDS011;64119;52.070;20.804;2022-10-16T07:01:28;9.90;;;7.50;;
75535;SDS011;64119;52.070;20.804;2022-10-16T07:03:56;11.40;;;6.50;;
75535;SDS011;64119;52.070;20.804;2022-10-16T07:06:25;10.20;;;6.60;;
75535;SDS011;64119;52.070;20.804;2022-10-16T07:08:53;12.10;;;7.50;;
75535;SDS011;64119;52.070;20.804;2022-10-16T07:11:21;10.70;;;7.60;;
75535;SDS011;64119;52.070;20.804;2022-10-16T07:13:51;10.90;;;7.40;;
75535;SDS011;64119;52.070;20.804;2022-10-16T07:16:24;9.70;;;6.20;;
75535;SDS011;64119;52.070;20.804;2022-10-16T07:19:01;11.10;;;6.80;;
75535;SDS011;64119;52.070;20.804;2022-10-16T07:21:30;9.90;;;7.00;;
75535;SDS011;64119;52.070;20.804;2022-10-16T07:24:04;10.60;;;6.90;;
75535;SDS011;64119;52.070;20.804;2022-10-16T07:26:35;12.50;;;8.00;;
75535;SDS011;64119;52.070;20.804;2022-10-16T07:29:03;8.80;;;6.40;;
75535;SDS011;64119;52.070;20.804;2022-10-16T07:31:31;9.60;;;7.10;;
75535;SDS011;64119;52.070;20.804;2022-10-16T07:33:59;9.80;;;6.90;;
75535;SDS011;64119;52.070;20.804;2022-10-16T07:36:27;11.30;;;8.00;;
75535;SDS011;64119;52.070;20.804;2022-10-16T07:38:55;12.40;;;7.50;;
75535;SDS011;64119;52.070;20.804;2022-10-16T07:41:26;11.80;;;7.60;;
75535;SDS011;64119;52.070;20.804;2022-10-16T07:43:54;11.50;;;8.60;;
75535;SDS011;64119;52.070;20.804;2022-10-16T07:46:23;10.40;;;7.60;;
75535;SDS011;64119;52.070;20.804;2022-10-16T07:48:51;10.90;;;8.00;;
75535;SDS011;64119;52.070;20.804;2022-10-16T07:51:20;8.70;;;7.20;;
75535;SDS011;64119;52.070;20.804;2022-10-16T07:53:49;11.40;;;7.40;;
75535;SDS011;64119;52.070;20.804;2022-10-16T07:58:46;10.60;;;6.10;;
75535;SDS011;64119;52.070;20.804;2022-10-16T08:01:14;10.50;;;6.70;;
75535;SDS011;64119;52.070;20.804;2022-10-16T08:03:43;10.10;;;7.30;;
75535;SDS011;64119;52.070;20.804;2022-10-16T08:06:12;9.30;;;6.80;;
75535;SDS011;64119;52.070;20.804;2022-10-16T08:08:40;8.40;;;5.80;;
75535;SDS011;64119;52.070;20.804;2022-10-16T08:11:08;10.20;;;7.00;;
75535;SDS011;64119;52.070;20.804;2022-10-16T08:13:36;10.20;;;6.70;;
75535;SDS011;64119;52.070;20.804;2022-10-16T08:16:04;11.00;;;7.00;;
75535;SDS011;64119;52.070;20.804;2022-10-16T08:18:35;11.40;;;6.60;;
75535;SDS011;64119;52.070;20.804;2022-10-16T08:21:05;9.70;;;7.50;;
75535;SDS011;64119;52.070;20.804;2022-10-16T08:23:34;9.60;;;6.50;;
75535;SDS011;64119;52.070;20.804;2022-10-16T08:26:03;9.90;;;7.30;;
75535;SDS011;64119;52.070;20.804;2022-10-16T08:28:33;10.50;;;7.20;;
75535;SDS011;64119;52.070;20.804;2022-10-16T08:31:05;10.30;;;6.50;;
75535;SDS011;64119;52.070;20.804;2022-10-16T08:33:36;9.70;;;5.80;;
75535;SDS011;64119;52.070;20.804;2022-10-16T08:36:05;11.80;;;6.10;;
75535;SDS011;64119;52.070;20.804;2022-10-16T08:38:33;8.30;;;5.70;;
75535;SDS011;64119;52.070;20.804;2022-10-16T08:41:22;6.40;;;4.40;;
75535;SDS011;64119;52.070;20.804;2022-10-16T08:44:03;8.80;;;5.90;;
75535;SDS011;64119;52.070;20.804;2022-10-16T08:49:17;9.20;;;6.50;;
75535;SDS011;64119;52.070;20.804;2022-10-16T08:51:45;9.10;;;6.80;;
75535;SDS011;64119;52.070;20.804;2022-10-16T08:56:50;10.90;;;6.00;;
75535;SDS011;64119;52.070;20.804;2022-10-16T08:59:18;9.30;;;6.30;;
75535;SDS011;64119;52.070;20.804;2022-10-16T09:01:47;10.00;;;6.80;;
75535;SDS011;64119;52.070;20.804;2022-10-16T09:07:54;9.90;;;6.90;;
75535;SDS011;64119;52.070;20.804;2022-10-16T09:10:19;8.60;;;6.10;;
75535;SDS011;64119;52.070;20.804;2022-10-16T09:22:12;9.60;;;7.40;;
75535;SDS011;64119;52.070;20.804;2022-10-16T09:24:42;10.90;;;7.90;;
75535;SDS011;64119;52.070;20.804;2022-10-16T09:27:11;10.30;;;6.50;;
75535;SDS011;64119;52.070;20.804;2022-10-16T09:29:40;9.60;;;6.60;;
75535;SDS011;64119;52.070;20.804;2022-10-16T09:32:15;10.20;;;7.80;;
75535;SDS011;64119;52.070;20.804;2022-10-16T09:34:47;9.70;;;6.80;;
75535;SDS011;64119;52.070;20.804;2022-10-16T09:37:18;9.30;;;6.30;;
75535;SDS011;64119;52.070;20.804;2022-10-16T09:39:48;10.00;;;6.70;;
75535;SDS011;64119;52.070;20.804;2022-10-16T09:42:18;9.10;;;6.20;;
75535;SDS011;64119;52.070;20.804;2022-10-16T09:44:49;9.40;;;7.00;;
75535;SDS011;64119;52.070;20.804;2022-10-16T09:47:25;9.00;;;5.90;;
75535;SDS011;64119;52.070;20.804;2022-10-16T09:52:24;8.50;;;6.30;;
75535;SDS011;64119;52.070;20.804;2022-10-16T09:55:14;10.00;;;6.10;;
75535;SDS011;64119;52.070;20.804;2022-10-16T09:57:53;10.90;;;6.80;;
75535;SDS011;64119;52.070;20.804;2022-10-16T10:00:22;10.20;;;6.50;;
75535;SDS011;64119;52.070;20.804;2022-10-16T10:02:51;10.30;;;6.20;;
75535;SDS011;64119;52.070;20.804;2022-10-16T10:05:27;9.90;;;7.30;;
75535;SDS011;64119;52.070;20.804;2022-10-16T10:07:57;9.00;;;6.10;;
75535;SDS011;64119;52.070;20.804;2022-10-16T10:10:30;8.60;;;6.30;;
75535;SDS011;64119;52.070;20.804;2022-10-16T10:12:59;8.00;;;6.20;;
75535;SDS011;64119;52.070;20.804;2022-10-16T10:15:27;9.00;;;6.10;;
75535;SDS011;64119;52.070;20.804;2022-10-16T10:18:00;8.00;;;5.80;;
75535;SDS011;64119;52.070;20.804;2022-10-16T10:20:31;9.00;;;6.40;;
75535;SDS011;64119;52.070;20.804;2022-10-16T10:23:21;10.90;;;6.20;;
75535;SDS011;64119;52.070;20.804;2022-10-16T10:25:55;8.80;;;5.90;;
75535;SDS011;64119;52.070;20.804;2022-10-16T10:28:30;9.20;;;5.80;;
75535;SDS011;64119;52.070;20.804;2022-10-16T10:33:57;8.20;;;5.90;;
75535;SDS011;64119;52.070;20.804;2022-10-16T10:47:27;9.90;;;5.80;;
75535;SDS011;64119;52.070;20.804;2022-10-16T10:50:07;9.70;;;6.00;;
75535;SDS011;64119;52.070;20.804;2022-10-16T10:52:53;8.00;;;5.90;;
75535;SDS011;64119;52.070;20.804;2022-10-16T11:06:44;6.50;;;5.00;;
75535;SDS011;64119;52.070;20.804;2022-10-16T11:09:25;7.20;;;5.70;;
75535;SDS011;64119;52.070;20.804;2022-10-16T11:11:59;8.50;;;5.60;;
75535;SDS011;64119;52.070;20.804;2022-10-16T11:14:34;8.60;;;6.50;;
75535;SDS011;64119;52.070;20.804;2022-10-16T11:17:10;10.40;;;5.60;;
75535;SDS011;64119;52.070;20.804;2022-10-16T11:19:47;7.30;;;5.10;;
75535;SDS011;64119;52.070;20.804;2022-10-16T11:22:40;7.20;;;5.50;;
75535;SDS011;64119;52.070;20.804;2022-10-16T11:25:48;9.60;;;5.90;;
75535;SDS011;64119;52.070;20.804;2022-10-16T11:28:11;8.30;;;5.70;;
75535;SDS011;64119;52.070;20.804;2022-10-16T11:30:46;8.20;;;5.30;;
75535;SDS011;64119;52.070;20.804;2022-10-16T11:44:13;8.80;;;6.60;;
75535;SDS011;64119;52.070;20.804;2022-10-16T11:46:55;7.10;;;5.30;;
75535;SDS011;64119;52.070;20.804;2022-10-16T11:49:52;8.00;;;5.70;;
75535;SDS011;64119;52.070;20.804;2022-10-16T11:57:39;7.20;;;5.90;;
75535;SDS011;64119;52.070;20.804;2022-10-16T12:00:18;9.30;;;6.10;;
75535;SDS011;64119;52.070;20.804;2022-10-16T12:08:39;7.90;;;5.40;;
75535;SDS011;64119;52.070;20.804;2022-10-16T12:11:09;7.40;;;5.40;;
75535;SDS011;64119;52.070;20.804;2022-10-16T12:13:47;8.00;;;5.80;;
75535;SDS011;64119;52.070;20.804;2022-10-16T12:18:43;8.00;;;5.50;;
75535;SDS011;64119;52.070;20.804;2022-10-16T12:21:13;7.90;;;5.30;;
75535;SDS011;64119;52.070;20.804;2022-10-16T12:23:47;7.40;;;5.10;;
75535;SDS011;64119;52.070;20.804;2022-10-16T12:26:23;6.90;;;5.00;;
75535;SDS011;64119;52.070;20.804;2022-10-16T12:28:53;7.20;;;5.80;;
75535;SDS011;64119;52.070;20.804;2022-10-16T12:31:22;7.50;;;5.60;;
75535;SDS011;64119;52.070;20.804;2022-10-16T12:33:53;9.50;;;5.70;;
75535;SDS011;64119;52.070;20.804;2022-10-16T12:39:00;7.70;;;5.50;;
75535;SDS011;64119;52.070;20.804;2022-10-16T12:41:33;8.70;;;5.80;;
75535;SDS011;64119;52.070;20.804;2022-10-16T12:44:02;7.70;;;5.30;;
75535;SDS011;64119;52.070;20.804;2022-10-16T12:51:41;9.50;;;5.50;;
75535;SDS011;64119;52.070;20.804;2022-10-16T12:59:55;5.80;;;4.30;;
75535;SDS011;64119;52.070;20.804;2022-10-16T13:02:44;8.50;;;5.20;;
75535;SDS011;64119;52.070;20.804;2022-10-16T13:05:50;8.20;;;5.20;;
75535;SDS011;64119;52.070;20.804;2022-10-16T13:08:33;7.80;;;5.40;;
75535;SDS011;64119;52.070;20.804;2022-10-16T13:11:29;5.70;;;4.60;;
75535;SDS011;64119;52.070;20.804;2022-10-16T13:14:36;8.20;;;5.00;;
75535;SDS011;64119;52.070;20.804;2022-10-16T13:17:16;6.20;;;5.00;;
75535;SDS011;64119;52.070;20.804;2022-10-16T13:19:57;7.70;;;5.30;;
75535;SDS011;64119;52.070;20.804;2022-10-16T13:30:30;6.80;;;5.20;;
75535;SDS011;64119;52.070;20.804;2022-10-16T13:33:02;6.50;;;4.80;;
75535;SDS011;64119;52.070;20.804;2022-10-16T13:35:34;10.10;;;5.50;;
75535;SDS011;64119;52.070;20.804;2022-10-16T13:38:14;6.90;;;5.30;;
75535;SDS011;64119;52.070;20.804;2022-10-16T13:43:24;9.80;;;5.40;;
75535;SDS011;64119;52.070;20.804;2022-10-16T13:46:20;7.30;;;5.50;;
75535;SDS011;64119;52.070;20.804;2022-10-16T13:49:03;7.40;;;5.30;;
75535;SDS011;64119;52.070;20.804;2022-10-16T13:51:32;7.10;;;5.10;;
75535;SDS011;64119;52.070;20.804;2022-10-16T13:54:00;7.60;;;5.00;;
75535;SDS011;64119;52.070;20.804;2022-10-16T13:56:29;8.50;;;5.80;;
75535;SDS011;64119;52.070;20.804;2022-10-16T13:59:00;6.90;;;5.30;;
75535;SDS011;64119;52.070;20.804;2022-10-16T14:01:35;7.10;;;5.10;;
75535;SDS011;64119;52.070;20.804;2022-10-16T14:04:11;7.90;;;5.30;;
75535;SDS011;64119;52.070;20.804;2022-10-16T14:06:42;6.40;;;4.60;;
75535;SDS011;64119;52.070;20.804;2022-10-16T14:09:23;8.40;;;5.30;;
75535;SDS011;64119;52.070;20.804;2022-10-16T14:11:56;7.50;;;5.10;;
75535;SDS011;64119;52.070;20.804;2022-10-16T14:14:29;8.30;;;5.80;;
75535;SDS011;64119;52.070;20.804;2022-10-16T14:17:03;7.40;;;5.50;;
75535;SDS011;64119;52.070;20.804;2022-10-16T14:19:31;7.70;;;5.10;;
75535;SDS011;64119;52.070;20.804;2022-10-16T14:21:59;7.10;;;5.40;;
75535;SDS011;64119;52.070;20.804;2022-10-16T14:26:56;8.10;;;5.90;;
75535;SDS011;64119;52.070;20.804;2022-10-16T14:29:25;9.00;;;5.60;;
75535;SDS011;64119;52.070;20.804;2022-10-16T14:31:58;9.00;;;5.40;;
75535;SDS011;64119;52.070;20.804;2022-10-16T14:34:31;8.30;;;5.00;;
75535;SDS011;64119;52.070;20.804;2022-10-16T14:37:06;6.50;;;4.60;;
75535;SDS011;64119;52.070;20.804;2022-10-16T14:39:40;8.00;;;6.10;;
75535;SDS011;64119;52.070;20.804;2022-10-16T14:42:14;7.60;;;5.70;;
75535;SDS011;64119;52.070;20.804;2022-10-16T14:44:44;7.40;;;5.30;;
75535;SDS011;64119;52.070;20.804;2022-10-16T14:47:13;8.60;;;5.40;;
75535;SDS011;64119;52.070;20.804;2022-10-16T14:49:49;7.10;;;4.90;;
75535;SDS011;64119;52.070;20.804;2022-10-16T14:52:16;7.60;;;5.80;;
75535;SDS011;64119;52.070;20.804;2022-10-16T14:54:47;10.10;;;6.00;;
75535;SDS011;64119;52.070;20.804;2022-10-16T14:57:19;8.00;;;5.20;;
75535;SDS011;64119;52.070;20.804;2022-10-16T14:59:50;7.00;;;5.80;;
75535;SDS011;64119;52.070;20.804;2022-10-16T15:02:29;7.10;;;5.10;;
75535;SDS011;64119;52.070;20.804;2022-10-16T15:05:01;8.50;;;5.90;;
75535;SDS011;64119;52.070;20.804;2022-10-16T15:07:38;8.50;;;6.20;;
75535;SDS011;64119;52.070;20.804;2022-10-16T15:10:06;9.20;;;5.80;;
75535;SDS011;64119;52.070;20.804;2022-10-16T15:12:34;9.50;;;5.90;;
75535;SDS011;64119;52.070;20.804;2022-10-16T15:15:05;8.70;;;6.10;;
75535;SDS011;64119;52.070;20.804;2022-10-16T15:17:42;9.90;;;5.80;;
75535;SDS011;64119;52.070;20.804;2022-10-16T15:20:09;10.40;;;6.30;;
75535;SDS011;64119;52.070;20.804;2022-10-16T15:22:37;8.60;;;5.80;;
75535;SDS011;64119;52.070;20.804;2022-10-16T15:28:01;8.80;;;5.60;;
75535;SDS011;64119;52.070;20.804;2022-10-16T15:30:30;10.50;;;6.90;;
75535;SDS011;64119;52.070;20.804;2022-10-16T15:32:58;10.10;;;6.10;;
75535;SDS011;64119;52.070;20.804;2022-10-16T15:35:26;12.50;;;6.10;;
75535;SDS011;64119;52.070;20.804;2022-10-16T15:37:54;10.30;;;5.80;;
75535;SDS011;64119;52.070;20.804;2022-10-16T15:40:22;7.10;;;5.70;;
75535;SDS011;64119;52.070;20.804;2022-10-16T15:42:50;10.00;;;6.90;;
75535;SDS011;64119;52.070;20.804;2022-10-16T15:45:17;10.90;;;6.20;;
75535;SDS011;64119;52.070;20.804;2022-10-16T15:47:46;10.20;;;6.20;;
75535;SDS011;64119;52.070;20.804;2022-10-16T15:50:14;9.00;;;5.80;;
75535;SDS011;64119;52.070;20.804;2022-10-16T15:52:44;9.30;;;6.40;;
75535;SDS011;64119;52.070;20.804;2022-10-16T15:55:12;8.10;;;6.30;;
75535;SDS011;64119;52.070;20.804;2022-10-16T16:00:14;9.80;;;5.80;;
75535;SDS011;64119;52.070;20.804;2022-10-16T16:02:44;8.10;;;5.30;;
75535;SDS011;64119;52.070;20.804;2022-10-16T16:05:17;9.20;;;6.30;;
75535;SDS011;64119;52.070;20.804;2022-10-16T16:07:45;8.60;;;6.60;;
75535;SDS011;64119;52.070;20.804;2022-10-16T16:10:16;8.00;;;5.80;;
75535;SDS011;64119;52.070;20.804;2022-10-16T16:12:45;10.50;;;7.70;;
75535;SDS011;64119;52.070;20.804;2022-10-16T16:15:20;8.10;;;5.70;;
75535;SDS011;64119;52.070;20.804;2022-10-16T16:17:49;10.30;;;6.40;;
75535;SDS011;64119;52.070;20.804;2022-10-16T16:20:17;9.40;;;6.00;;
75535;SDS011;64119;52.070;20.804;2022-10-16T16:22:44;9.30;;;6.70;;
75535;SDS011;64119;52.070;20.804;2022-10-16T16:25:12;8.80;;;6.60;;
75535;SDS011;64119;52.070;20.804;2022-10-16T16:30:09;10.20;;;6.10;;
75535;SDS011;64119;52.070;20.804;2022-10-16T16:32:45;10.10;;;6.80;;
75535;SDS011;64119;52.070;20.804;2022-10-16T16:35:13;8.90;;;6.60;;
75535;SDS011;64119;52.070;20.804;2022-10-16T16:37:41;9.10;;;5.40;;
75535;SDS011;64119;52.070;20.804;2022-10-16T16:40:09;8.70;;;6.30;;
75535;SDS011;64119;52.070;20.804;2022-10-16T16:42:36;11.00;;;6.70;;
75535;SDS011;64119;52.070;20.804;2022-10-16T16:45:05;9.30;;;7.10;;
75535;SDS011;64119;52.070;20.804;2022-10-16T16:47:33;11.20;;;7.20;;
75535;SDS011;64119;52.070;20.804;2022-10-16T16:50:00;13.50;;;8.10;;
75535;SDS011;64119;52.070;20.804;2022-10-16T16:52:32;12.80;;;7.20;;
75535;SDS011;64119;52.070;20.804;2022-10-16T16:55:00;10.10;;;7.70;;